Latest Weather Observations for Kilmore Gap

IDV60801

Issued at 8:32 am EDT Sunday 26 March 2017 (issued every 30 minutes, with the page automatically refreshed every 10 minutes)

About weather observations | Map of weather stations | Latest weather observations for VIC | Other Formats
Station Details ID: 088162 Name: KILMORE GAP Lat: -37.38 Lon: 144.97 Height: 527.8 m
Data from the previous 72 hours. | See also: Recent months at Kilmore Gap
Date/Time
EDT
Temp
°C
App
Temp
°C
Dew
Point
°C
Rel
Hum
%
Delta-T
°C
Wind Press
QNH
hPa
Press
MSL
hPa
Rain since
9am
mm
Dir  Spd
km/h
Gust
km/h
Spd
kts
Gust
kts
26/08:30am 16.2 16.1 16.0 99 0.1 SE 11 13 6 7 1016.1 1014.8 0.2
26/08:00am 16.0 15.8 15.8 99 0.1 SSE 11 15 6 8 1016.2 1014.9 0.2
26/07:30am 15.9 15.3 15.7 99 0.1 SSE 13 17 7 9 1015.7 1014.4 0.2
26/07:00am 15.9 14.2 15.7 99 0.1 SE 19 22 10 12 1015.4 1014.1 0.0
26/06:30am 15.9 14.6 15.7 99 0.1 SSE 17 20 9 11 1015.4 1014.1 0.0
26/06:00am 15.9 15.3 15.7 99 0.1 SSE 13 17 7 9 1015.1 1013.7 0.0
26/05:30am 15.8 14.4 15.6 99 0.1 SSE 17 20 9 11 1015.1 1013.7 0.0
26/05:00am 15.8 15.2 15.6 99 0.1 SSE 13 19 7 10 1014.9 1013.5 0.0
26/04:30am 15.7 14.7 15.5 99 0.1 S 15 19 8 10 1015.2 1013.8 0.0
26/04:00am 15.7 14.7 15.5 99 0.1 S 15 20 8 11 1015.4 1014.1 0.0
26/03:30am 15.7 13.7 15.5 99 0.1 S 20 24 11 13 1015.3 1014.0 0.0
26/03:00am 15.6 13.8 15.4 99 0.1 S 19 22 10 12 1015.4 1014.1 0.0
26/02:30am 15.6 13.6 15.4 99 0.1 S 20 24 11 13 1015.7 1014.4 0.0
26/02:00am 15.8 15.2 15.6 99 0.1 S 13 19 7 10 1015.8 1014.5 0.0
26/01:30am 15.9 14.6 15.7 99 0.1 S 17 20 9 11 1015.8 1014.5 0.0
26/01:00am 15.9 14.9 15.7 99 0.1 S 15 19 8 10 1015.9 1014.6 0.0
26/12:36am 15.8 15.5 15.5 98 0.2 SSW 11 15 6 8 1016.2 1014.9 0.0
26/12:30am 15.8 15.1 15.3 97 0.3 SSW 13 17 7 9 1016.2 1014.9 0.0
26/12:27am 15.9 15.2 15.4 97 0.3 SSW 13 17 7 9 1016.1 1014.8 0.0
26/12:00am 16.1 15.3 15.1 94 0.6 SSW 13 19 7 10 1016.1 1014.8 0.0
 
Date/Time
EDT
Temp
°C
App
Temp
°C
Dew
Point
°C
Rel
Hum
%
Delta-T
°C
Wind Press
QNH
hPa
Press
MSL
hPa
Rain since
9am
mm
Dir  Spd
km/h
Gust
km/h
Spd
kts
Gust
kts
25/11:30pm 17.3 16.9 15.1 87 1.3 SW 11 17 6 9 1016.3 1015.0 0.0
25/11:00pm 17.9 17.1 15.2 84 1.6 WSW 13 17 7 9 1016.3 1015.0 0.0
25/10:30pm 18.7 18.3 16.1 85 1.6 WSW 13 17 7 9 1016.1 1014.8 0.0
25/10:00pm 20.1 19.8 16.5 80 2.2 NNE 13 17 7 9 1015.8 1014.5 0.0
25/09:30pm 20.4 18.8 16.6 79 2.4 N 20 24 11 13 1015.3 1014.0 0.0
25/09:00pm 20.5 21.1 16.7 79 2.4 WNW 9 20 5 11 1015.3 1014.0 0.0
25/08:30pm 20.5 19.5 16.5 78 2.5 NNE 17 22 9 12 1014.2 1012.9 0.0
25/08:00pm 20.9 19.8 16.3 75 2.8 N 17 22 9 12 1013.9 1012.6 0.0
25/07:30pm 20.9 20.4 15.9 73 3.1 NNE 13 15 7 8 1013.8 1012.5 0.0
25/07:00pm 21.8 22.6 15.9 69 3.6 SSE 6 9 3 5 1013.7 1012.4 0.0
25/06:30pm 22.8 18.7 15.9 65 4.3 N 32 41 17 22 1012.5 1011.1 0.0
25/06:00pm 23.7 20.8 16.0 62 4.8 N 26 35 14 19 1012.9 1011.5 0.0
25/05:30pm 24.2 21.0 16.2 61 5.0 N 28 35 15 19 1012.8 1011.4 0.0
25/05:00pm 24.3 20.6 16.0 60 5.2 N 30 35 16 19 1012.6 1011.2 0.0
25/04:30pm 23.1 19.3 15.7 63 4.6 N 30 37 16 20 1013.0 1011.6 0.0
25/04:00pm 25.1 22.2 16.0 57 5.7 N 26 33 14 18 1013.2 1011.8 0.0
25/03:30pm 24.0 20.9 15.5 59 5.2 N 26 33 14 18 1013.4 1012.0 0.0
25/03:00pm 23.8 20.4 15.8 61 4.9 N 28 35 15 19 1013.8 1012.5 0.0
25/02:30pm 23.7 20.8 16.2 63 4.7 N 26 32 14 17 1014.0 1012.7 0.0
25/02:00pm 22.8 18.9 15.6 64 4.4 N 30 39 16 21 1014.3 1013.0 0.0
25/01:30pm 22.6 18.3 15.9 66 4.1 N 33 41 18 22 1014.5 1013.1 0.0
25/01:00pm 21.9 17.6 15.5 67 3.9 N 32 39 17 21 1014.8 1013.4 0.0
25/12:30pm 21.6 17.2 15.2 67 3.9 N 32 39 17 21 1015.2 1013.8 0.0
25/12:00pm 20.7 15.7 15.0 70 3.4 N 35 46 19 25 1015.3 1014.0 0.0
25/11:30am 19.5 13.9 14.5 73 3.0 N 37 44 20 24 1015.7 1014.4 0.0
25/11:00am 19.1 13.2 14.6 75 2.7 N 39 46 21 25 1015.7 1014.4 0.0
25/10:30am 17.7 11.5 13.8 78 2.3 N 39 50 21 27 1015.4 1014.1 0.0
25/10:00am 17.7 11.6 14.0 79 2.2 N 39 50 21 27 1015.3 1014.0 0.0
25/09:30am 17.1 11.7 13.8 81 1.9 N 35 48 19 26 1015.3 1014.0 0.0
25/09:28am 17.1 11.7 13.8 81 1.9 N 35 48 19 26 1015.3 1014.0 0.0
25/09:11am 16.6 10.4 13.7 83 1.7 N 39 48 21 26 1015.0 1013.6 0.0
25/09:00am 16.7 10.9 13.8 83 1.7 N 37 46 20 25 1014.9 1013.5 0.0
25/08:30am 16.5 11.0 13.6 83 1.7 N 35 43 19 23 1014.9 1013.5 0.0
25/08:00am 16.4 10.9 13.5 83 1.7 N 35 46 19 25 1014.3 1013.0 0.0
25/07:30am 16.5 10.9 13.4 82 1.8 N 35 43 19 23 1014.5 1013.1 0.0
25/07:00am 16.4 10.8 13.3 82 1.8 N 35 41 19 22 1013.9 1012.6 0.0
25/06:30am 16.1 10.9 13.4 84 1.6 N 33 41 18 22 1013.7 1012.4 0.0
25/06:00am 16.6 10.2 13.3 81 1.9 N 39 48 21 26 1013.3 1011.9 0.0
25/05:30am 17.1 11.0 13.0 77 2.3 N 37 46 20 25 1013.9 1012.6 0.0
25/05:00am 17.4 12.0 12.9 75 2.6 N 33 44 18 24 1013.8 1012.5 0.0
25/04:30am 17.3 12.1 12.8 75 2.6 N 32 39 17 21 1013.7 1012.4 0.0
25/04:00am 17.6 12.7 12.5 72 2.9 NNE 30 37 16 20 1013.9 1012.6 0.0
25/03:30am 17.8 14.3 12.3 70 3.1 NNE 22 26 12 14 1014.9 1013.5 0.0
25/03:00am 18.4 15.5 12.2 67 3.5 N 19 24 10 13 1015.7 1014.4 0.0
25/02:30am 18.5 17.1 12.3 67 3.5 N 11 13 6 7 1016.2 1014.9 0.0
25/02:00am 18.4 17.0 12.2 67 3.5 N 11 13 6 7 1015.9 1014.6 0.0
25/01:30am 18.7 17.6 12.0 65 3.8 NNW 9 11 5 6 1016.2 1014.9 0.0
25/01:00am 18.9 17.5 12.2 65 3.8 N 11 13 6 7 1016.2 1014.9 0.0
25/12:30am 18.5 17.6 12.7 69 3.3 NNE 9 11 5 6 1016.1 1014.8 0.0
25/12:00am 17.5 16.9 13.6 78 2.3 ENE 9 13 5 7 1016.2 1014.9 0.0
 
Date/Time
EDT
Temp
°C
App
Temp
°C
Dew
Point
°C
Rel
Hum
%
Delta-T
°C
Wind Press
QNH
hPa
Press
MSL
hPa
Rain since
9am
mm
Dir  Spd
km/h
Gust
km/h
Spd
kts
Gust
kts
24/11:30pm 17.8 17.9 13.9 78 2.3 SSE 6 6 3 3 1017.0 1015.7 0.0
24/11:00pm 17.2 17.1 13.9 81 1.9 S 7 9 4 5 1017.1 1015.8 0.0
24/10:30pm 16.5 15.9 13.6 83 1.7 SSW 9 11 5 6 1017.4 1016.1 0.0
24/10:00pm 17.1 16.5 13.4 79 2.1 SSW 9 13 5 7 1017.4 1016.1 0.0
24/09:30pm 17.2 15.8 13.5 79 2.1 SW 13 17 7 9 1017.4 1016.1 0.0
24/09:00pm 17.9 16.8 13.2 74 2.7 WSW 11 13 6 7 1017.2 1015.9 0.0
24/08:30pm 20.1 18.8 11.3 57 5.0 NNW 9 9 5 5 1016.9 1015.5 0.0
24/08:00pm 20.6 19.7 11.2 55 5.3 NW 7 9 4 5 1017.0 1015.7 0.0
24/07:30pm 20.4 19.7 11.3 56 5.1 NW 6 7 3 4 1017.3 1016.0 0.0
24/07:00pm 20.7 20.0 11.3 55 5.3 N 6 7 3 4 1017.0 1015.7 0.0
24/06:30pm 21.3 19.6 11.3 53 5.7 N 11 13 6 7 1016.9 1015.5 0.0
24/06:00pm 21.8 20.3 10.6 49 6.3 N 9 13 5 7 1017.3 1016.0 0.0
24/05:30pm 21.8 19.9 10.6 49 6.3 NNW 11 13 6 7 1017.1 1015.8 0.0
24/05:00pm 22.2 20.3 10.4 47 6.6 NNW 11 17 6 9 1016.8 1015.4 0.0
24/04:30pm 22.4 20.2 10.9 48 6.5 N 13 19 7 10 1016.8 1015.4 0.0
24/04:00pm 22.4 20.2 10.9 48 6.5 NNE 13 19 7 10 1017.2 1015.9 0.0
24/03:30pm 22.4 20.6 10.9 48 6.5 N 11 15 6 8 1017.3 1016.0 0.0
24/03:00pm 23.6 22.0 11.6 47 6.9 NNE 11 15 6 8 1017.7 1016.4 0.0
24/02:30pm 23.2 22.2 10.9 46 7.0 NNE 7 13 4 7 1018.1 1016.8 0.0
24/02:00pm 22.3 20.5 10.8 48 6.5 NNE 11 20 6 11 1018.7 1017.4 0.0
24/01:30pm 21.9 20.8 11.9 53 5.8 NE 9 13 5 7 1019.3 1018.0 0.0
24/01:00pm 21.2 19.4 11.0 52 5.7 NE 11 17 6 9 1019.7 1018.4 0.0
24/12:30pm 20.1 18.4 11.1 56 5.1 NNE 11 17 6 9 1020.0 1018.7 0.0
24/12:00pm 20.4 19.0 12.1 59 4.7 NE 11 17 6 9 1020.3 1019.1 0.0
24/11:30am 18.5 16.8 12.3 67 3.5 NNE 13 15 7 8 1020.5 1019.2 0.0
24/11:00am 17.5 16.4 13.0 75 2.6 NNE 11 17 6 9 1020.8 1019.5 0.0
24/10:30am 15.7 15.5 14.7 94 0.6 ENE 9 13 5 7 1020.5 1019.2 0.0
24/10:16am 14.4 14.0 14.2 99 0.1 E 9 11 5 6 1020.7 1019.4 0.0
24/10:11am 14.0 13.5 13.8 99 0.1 ESE 9 11 5 6 1020.7 1019.4 0.0
24/10:00am 13.5 13.2 13.3 99 0.1 SE 7 9 4 5 1020.8 1019.5 0.0
24/09:30am 12.9 11.3 12.7 99 0.1 SE 13 17 7 9 1020.5 1019.2 0.0
24/09:00am 13.0 11.8 12.8 99 0.1 SE 11 13 6 7 1020.3 1019.1 0.2
24/08:30am 12.1 11.0 11.9 99 0.1 SW 9 11 5 6 1020.2 1019.0 0.2
24/08:00am 11.8 10.6 11.6 99 0.1 S 9 9 5 5 1020.0 1018.7 0.2
24/07:30am 11.9 10.7 11.7 99 0.1 SSW 9 13 5 7 1019.6 1018.3 0.2
24/07:00am 12.1 10.6 11.9 99 0.1 WSW 11 17 6 9 1019.5 1018.2 0.2
24/06:30am 12.1 10.6 11.9 99 0.1 SW 11 15 6 8 1019.4 1018.1 0.2
24/06:00am 12.0 10.5 11.8 99 0.1 SW 11 13 6 7 1019.2 1017.9 0.2
24/05:30am 11.9 10.3 11.7 99 0.1 WSW 11 13 6 7 1019.2 1017.9 0.2
24/05:00am 12.0 10.5 11.8 99 0.1 SW 11 17 6 9 1019.3 1018.0 0.2
24/04:30am 11.8 10.6 11.6 99 0.1 WSW 9 13 5 7 1019.6 1018.3 0.2
24/04:00am 12.2 10.7 12.0 99 0.1 SSW 11 13 6 7 1019.7 1018.4 0.0
24/03:30am 12.0 10.1 11.8 99 0.1 SW 13 17 7 9 1019.9 1018.6 0.0
24/03:00am 12.2 9.6 12.0 99 0.1 S 17 19 9 10 1020.1 1018.8 0.0
24/02:30am 12.3 10.1 12.1 99 0.1 S 15 19 8 10 1020.3 1019.1 0.0
24/02:10am 12.2 9.6 12.0 99 0.1 S 17 19 9 10 1020.3 1019.1 0.0
24/02:00am 12.2 9.6 12.0 99 0.1 S 17 19 9 10 1020.3 1019.1 0.0
24/01:59am 12.1 9.5 11.9 99 0.1 S 17 19 9 10 1020.3 1019.1 0.0
24/01:57am 12.2 9.6 12.0 99 0.1 S 17 19 9 10 1020.3 1019.1 0.0
24/01:53am 12.2 9.6 12.0 99 0.1 S 17 19 9 10 1020.5 1019.2 0.0
24/01:30am 12.5 10.8 12.3 99 0.1 SSW 13 17 7 9 1020.6 1019.3 0.0
24/01:00am 12.5 10.0 12.3 99 0.1 SW 17 19 9 10 1020.7 1019.4 0.0
24/12:30am 12.7 11.0 12.5 99 0.1 SW 13 19 7 10 1020.8 1019.5 0.0
24/12:21am 12.8 11.1 12.6 99 0.1 SW 13 17 7 9 1020.8 1019.5 0.0
24/12:00am 13.1 10.1 12.6 97 0.3 S 20 28 11 15 1020.8 1019.5 0.0
 
Date/Time
EDT
Temp
°C
App
Temp
°C
Dew
Point
°C
Rel
Hum
%
Delta-T
°C
Wind Press
QNH
hPa
Press
MSL
hPa
Rain since
9am
mm
Dir  Spd
km/h
Gust
km/h
Spd
kts
Gust
kts
23/11:30pm 13.4 10.5 12.9 97 0.3 S 20 24 11 13 1020.8 1019.5 0.0
23/11:00pm 13.7 11.4 13.1 96 0.3 S 17 22 9 12 1020.9 1019.6 0.0
23/10:30pm 14.3 12.1 13.2 93 0.6 SSW 17 20 9 11 1021.3 1020.0 0.0
23/10:00pm 14.8 12.2 13.3 91 0.9 S 19 24 10 13 1021.0 1019.7 0.0
23/09:30pm 15.1 12.8 13.1 88 1.1 S 17 24 9 13 1020.8 1019.5 0.0
23/09:00pm 15.8 12.3 13.3 85 1.4 S 24 30 13 16 1020.2 1019.0 0.0
23/08:30pm 16.2 13.0 13.1 82 1.8 S 22 26 12 14 1020.1 1018.8 0.0
23/08:00pm 16.8 14.2 13.1 79 2.1 S 19 24 10 13 1019.6 1018.3 0.0
23/07:30pm 17.6 14.8 13.1 75 2.6 S 20 24 11 13 1019.3 1018.0 0.0
23/07:00pm 18.6 15.0 13.2 71 3.1 S 24 32 13 17 1019.3 1018.0 0.0
23/06:30pm 19.7 16.5 13.2 66 3.8 S 22 32 12 17 1019.2 1017.9 0.0
23/06:00pm 20.2 16.6 12.9 63 4.2 S 24 32 13 17 1019.1 1017.8 0.0
23/05:30pm 20.5 17.6 13.0 62 4.4 S 20 28 11 15 1019.0 1017.7 0.0
23/05:00pm 19.9 16.1 12.4 62 4.3 S 24 35 13 19 1019.1 1017.8 0.0
23/04:30pm 21.4 19.2 13.3 60 4.8 SSW 17 24 9 13 1019.2 1017.9 0.0
23/04:00pm 21.6 18.8 13.2 59 4.9 S 20 33 11 18 1019.4 1018.1 0.0
23/03:30pm 21.0 18.8 13.4 62 4.5 SSW 17 30 9 16 1019.4 1018.1 0.0
23/03:00pm 21.2 18.7 13.6 62 4.5 S 19 30 10 16 1019.6 1018.3 0.0
23/02:30pm 19.3 16.5 12.6 65 3.9 SSW 19 28 10 15 1019.9 1018.6 0.0
23/02:00pm 19.6 17.0 13.1 66 3.8 S 19 28 10 15 1020.2 1019.0 0.0
23/01:30pm 20.2 17.8 14.3 69 3.5 S 20 32 11 17 1020.3 1019.1 0.0
23/01:11pm 18.3 15.3 12.7 70 3.2 S 20 32 11 17 1020.7 1019.4 0.0
23/01:00pm 18.5 15.8 13.6 73 2.9 S 20 28 11 15 1020.7 1019.4 0.0
23/12:30pm 17.6 14.6 12.7 73 2.8 S 20 30 11 16 1020.8 1019.5 0.0
23/12:00pm 17.0 14.6 13.7 81 1.9 S 19 30 10 16 1021.1 1019.8 0.0
23/11:30am 16.3 13.1 13.0 81 1.9 S 22 32 12 17 1021.2 1019.9 0.0
23/11:00am 14.7 12.0 12.9 89 1.0 S 19 28 10 15 1021.2 1019.9 0.0
23/10:30am 14.3 11.5 13.2 93 0.6 S 20 30 11 16 1021.1 1019.8 0.0
23/10:00am 13.5 10.7 13.3 99 0.1 S 20 28 11 15 1021.1 1019.8 0.0
23/09:40am 13.3 10.1 13.1 99 0.1 S 22 32 12 17 1021.0 1019.7 0.0
23/09:30am 13.1 9.8 12.9 99 0.1 S 22 32 12 17 1020.9 1019.6 0.0
23/09:00am 12.8 9.4 12.6 99 0.1 S 22 32 12 17 1020.6 1019.3 0.8

Other Formats:

Comma delimited format used in spreadsheet applications
http://www.bom.gov.au/fwo/IDV60801/IDV60801.94860.axf

JavaScript Object Notation format (JSON) in row-major order
http://www.bom.gov.au/fwo/IDV60801/IDV60801.94860.json